createdAt,value
2022-12-28T00:01:20.835Z,101692.50
2022-12-28T00:03:49.815Z,101695.75
2022-12-28T00:06:18.724Z,101704.44
2022-12-28T00:08:48.330Z,101696.78
2022-12-28T00:11:27.945Z,101704.63
2022-12-28T00:13:59.531Z,101713.41
2022-12-28T00:16:29.771Z,101715.59
2022-12-28T00:18:58.891Z,101716.78
2022-12-28T00:21:27.896Z,101727.34
2022-12-28T00:23:58.793Z,101720.25
2022-12-28T00:26:27.746Z,101739.19
2022-12-28T00:29:03.261Z,101745.13
2022-12-28T00:31:33.184Z,101742.66
2022-12-28T00:34:01.191Z,101729.44
2022-12-28T00:37:11.203Z,101733.19
2022-12-28T00:39:18.437Z,101727.06
2022-12-28T00:41:46.497Z,101727.06
2022-12-28T00:44:14.441Z,101709.00
2022-12-28T00:46:42.905Z,101699.06
2022-12-28T00:49:10.955Z,101727.78
2022-12-28T00:51:38.975Z,101740.25
2022-12-28T00:54:07.076Z,101749.19
2022-12-28T00:56:36.658Z,101739.78
2022-12-28T00:59:04.620Z,101747.56
2022-12-28T01:01:32.683Z,101754.34
2022-12-28T01:04:01.411Z,101755.28
2022-12-28T01:06:30.118Z,101749.66
2022-12-28T01:08:58.180Z,101745.97
2022-12-28T01:11:28.149Z,101753.41
2022-12-28T01:13:59.973Z,101755.72
2022-12-28T01:16:30.125Z,101764.28
2022-12-28T01:18:59.883Z,101771.69
2022-12-28T01:21:30.491Z,101772.75
2022-12-28T01:24:01.040Z,101775.09
2022-12-28T01:26:30.176Z,101774.22
2022-12-28T01:29:00.168Z,101759.16
2022-12-28T01:31:28.736Z,101776.53
2022-12-28T01:33:56.760Z,101755.31
2022-12-28T01:36:26.855Z,101780.16
2022-12-28T01:38:55.934Z,101783.38
2022-12-28T01:41:25.444Z,101787.91
2022-12-28T01:44:26.833Z,101792.84
2022-12-28T01:47:01.877Z,101796.84
2022-12-28T01:49:32.985Z,101808.41
2022-12-28T01:52:07.329Z,101817.03
2022-12-28T01:54:38.405Z,101802.63
2022-12-28T01:57:06.690Z,101803.75
2022-12-28T01:59:41.317Z,101811.44
2022-12-28T02:02:13.659Z,101812.38
2022-12-28T02:04:41.994Z,101818.34
2022-12-28T02:07:10.931Z,101813.25
2022-12-28T02:09:42.379Z,101802.66
2022-12-28T02:12:14.990Z,101821.28
2022-12-28T02:14:44.957Z,101819.28
2022-12-28T02:17:15.166Z,101819.97
2022-12-28T02:19:46.616Z,101843.75
2022-12-28T02:22:50.688Z,101846.88
2022-12-28T02:25:55.960Z,101847.50
2022-12-28T02:28:33.042Z,101837.94
2022-12-28T02:31:08.629Z,101840.88
2022-12-28T02:33:43.118Z,101845.06
2022-12-28T02:36:19.212Z,101839.28
2022-12-28T02:38:51.447Z,101836.84
2022-12-28T02:41:22.246Z,101846.94
2022-12-28T02:43:50.450Z,101847.66
2022-12-28T02:46:38.892Z,101853.69
2022-12-28T02:49:36.966Z,101859.69
2022-12-28T02:52:12.763Z,101861.69
2022-12-28T02:55:21.895Z,101848.78
2022-12-28T02:58:07.283Z,101863.56
2022-12-28T03:00:45.737Z,101860.16
2022-12-28T03:03:23.266Z,101850.06
2022-12-28T03:06:19.497Z,101859.50
2022-12-28T03:08:55.424Z,101858.47
2022-12-28T03:11:29.753Z,101857.06
2022-12-28T03:14:00.842Z,101860.44
2022-12-28T03:16:31.907Z,101856.22
2022-12-28T03:19:24.524Z,101857.78
2022-12-28T03:22:13.243Z,101856.59
2022-12-28T03:25:01.370Z,101864.94
2022-12-28T03:27:49.369Z,101868.56
2022-12-28T03:30:38.132Z,101861.88
2022-12-28T03:33:07.713Z,101861.03
2022-12-28T03:35:44.585Z,101868.56
2022-12-28T03:38:27.636Z,101873.81
2022-12-28T03:41:07.000Z,101882.59
2022-12-28T03:43:42.521Z,101900.31
2022-12-28T03:46:17.716Z,101891.91
2022-12-28T03:48:46.707Z,101894.69
2022-12-28T03:51:20.783Z,101891.38
2022-12-28T03:53:48.813Z,101896.72
2022-12-28T03:56:19.213Z,101902.56
2022-12-28T03:58:47.865Z,101914.81
2022-12-28T04:01:16.267Z,101921.69
2022-12-28T04:03:44.589Z,101916.56
2022-12-28T04:06:16.620Z,101913.06
2022-12-28T04:08:45.574Z,101920.75
2022-12-28T04:11:14.125Z,101927.59
2022-12-28T04:13:42.075Z,101922.50
2022-12-28T04:16:12.306Z,101925.91
2022-12-28T04:18:41.960Z,101927.88
2022-12-28T04:21:10.871Z,101926.16
2022-12-28T04:23:40.197Z,101928.56
2022-12-28T04:26:11.509Z,101907.56
2022-12-28T04:28:40.682Z,101934.75
2022-12-28T04:31:11.837Z,101943.19
2022-12-28T04:33:40.812Z,101939.66
2022-12-28T04:36:10.700Z,101946.59
2022-12-28T04:38:40.133Z,101948.28
2022-12-28T04:41:09.348Z,101961.16
2022-12-28T04:43:37.411Z,101963.03
2022-12-28T04:46:09.731Z,101953.91
2022-12-28T04:48:37.748Z,101961.50
2022-12-28T04:51:08.644Z,101956.47
2022-12-28T04:53:41.779Z,101962.66
2022-12-28T04:56:12.101Z,101958.22
2022-12-28T04:58:40.613Z,101960.94
2022-12-28T05:01:10.426Z,101972.81
2022-12-28T05:03:39.630Z,101976.22
2022-12-28T05:06:09.728Z,101967.78
2022-12-28T05:08:38.527Z,101964.41
2022-12-28T05:11:10.460Z,101966.97
2022-12-28T05:13:38.635Z,101979.66
2022-12-28T05:16:08.449Z,101977.28
2022-12-28T05:18:37.030Z,101979.69
2022-12-28T05:21:07.122Z,101958.47
2022-12-28T05:23:36.614Z,101978.16
2022-12-28T05:26:05.062Z,101984.84
2022-12-28T05:28:34.806Z,101983.31
2022-12-28T05:31:04.559Z,101984.38
2022-12-28T05:33:34.539Z,101990.34
2022-12-28T05:36:04.841Z,101988.66
2022-12-28T05:38:34.235Z,101983.78
2022-12-28T05:41:07.252Z,101967.59
2022-12-28T05:43:36.759Z,101987.00
2022-12-28T05:46:06.847Z,101987.84
2022-12-28T05:48:36.784Z,101988.84
2022-12-28T05:51:07.140Z,101987.16
2022-12-28T05:53:35.518Z,101983.75
2022-12-28T05:56:08.226Z,101982.91
2022-12-28T05:58:40.483Z,101992.34
2022-12-28T06:01:10.607Z,101991.53
2022-12-28T06:03:39.446Z,101997.63
2022-12-28T06:06:10.015Z,101986.56
2022-12-28T06:08:39.205Z,102007.97
2022-12-28T06:11:09.679Z,102008.81
2022-12-28T06:13:39.436Z,102012.19
2022-12-28T06:16:08.438Z,102009.50
2022-12-28T06:18:36.799Z,102022.25
2022-12-28T06:21:06.240Z,102012.06
2022-12-28T06:23:34.706Z,102019.66
2022-12-28T06:26:04.036Z,102017.81
2022-12-28T06:28:32.294Z,102013.59
2022-12-28T06:31:06.020Z,102022.97
2022-12-28T06:33:34.592Z,102025.75
2022-12-28T06:36:02.851Z,102020.56
2022-12-28T06:38:32.645Z,101998.34
2022-12-28T06:41:13.420Z,102022.97
2022-12-28T06:43:43.146Z,102011.75
2022-12-28T06:46:13.552Z,102031.53
2022-12-28T06:48:41.915Z,102033.19
2022-12-28T06:51:13.706Z,102038.25
2022-12-28T06:53:42.231Z,102033.13
2022-12-28T06:56:13.888Z,102044.22
2022-12-28T06:58:42.214Z,102036.56
2022-12-28T07:01:14.237Z,102047.59
2022-12-28T07:03:42.713Z,102043.19
2022-12-28T07:06:11.776Z,102038.88
2022-12-28T07:08:41.603Z,102051.59
2022-12-28T07:11:11.816Z,102050.66
2022-12-28T07:13:40.211Z,102052.16
2022-12-28T07:16:11.034Z,102051.38
2022-12-28T07:18:41.477Z,102049.63
2022-12-28T07:21:14.368Z,102058.09
2022-12-28T07:23:42.301Z,102064.75
2022-12-28T07:26:11.928Z,102055.34
2022-12-28T07:28:40.577Z,102067.34
2022-12-28T07:31:09.630Z,102076.56
2022-12-28T07:33:38.701Z,102071.47
2022-12-28T07:36:11.211Z,102072.97
2022-12-28T07:38:39.816Z,102071.34
2022-12-28T07:41:10.631Z,102076.31
2022-12-28T07:43:38.969Z,102069.41
2022-12-28T07:46:09.333Z,102079.63
2022-12-28T07:48:38.384Z,102073.69
2022-12-28T07:51:11.773Z,102080.47
2022-12-28T07:53:40.165Z,102075.06
2022-12-28T07:56:08.752Z,102077.34
2022-12-28T07:58:36.856Z,102085.13
2022-12-28T08:01:06.579Z,102078.91
2022-12-28T08:03:34.984Z,102065.97
2022-12-28T08:06:07.650Z,102064.13
2022-12-28T08:08:37.430Z,102066.50
2022-12-28T08:11:06.930Z,102064.72
2022-12-28T08:13:35.885Z,102078.28
2022-12-28T08:16:04.027Z,102076.66
2022-12-28T08:18:32.533Z,102076.00
2022-12-28T08:21:03.280Z,102073.06
2022-12-28T08:23:31.475Z,102083.13
2022-12-28T08:26:06.848Z,102078.50
2022-12-28T08:28:35.656Z,102082.66
2022-12-28T08:31:07.972Z,102085.94
2022-12-28T08:33:36.425Z,102082.19
2022-12-28T08:36:05.110Z,102065.75
2022-12-28T08:38:33.283Z,102069.94
2022-12-28T08:41:04.623Z,102077.53
2022-12-28T08:43:34.224Z,102072.28
2022-12-28T08:46:03.417Z,102065.13
2022-12-28T08:48:31.551Z,102070.84
2022-12-28T08:51:03.107Z,102049.97
2022-12-28T08:53:31.094Z,102058.59
2022-12-28T08:56:07.098Z,102031.16
2022-12-28T08:58:35.631Z,102055.53
2022-12-28T09:01:08.580Z,102047.84
2022-12-28T09:03:38.367Z,102046.00
2022-12-28T09:06:07.851Z,102045.13
2022-12-28T09:08:35.994Z,102043.16
2022-12-28T09:11:07.942Z,102036.81
2022-12-28T09:13:36.789Z,102037.38
2022-12-28T09:16:06.724Z,102033.97
2022-12-28T09:18:35.680Z,102031.13
2022-12-28T09:21:07.036Z,102028.91
2022-12-28T09:23:35.347Z,102024.81
2022-12-28T09:26:11.995Z,102020.38
2022-12-28T09:28:40.444Z,102008.38
2022-12-28T09:31:09.999Z,102013.03
2022-12-28T09:34:34.388Z,102003.47
2022-12-28T09:36:44.780Z,102006.56
2022-12-28T09:39:17.154Z,102002.78
2022-12-28T09:41:50.975Z,101992.41
2022-12-28T09:44:41.176Z,102003.13
2022-12-28T09:47:17.592Z,102003.75
2022-12-28T09:49:57.228Z,102000.53
2022-12-28T09:52:30.857Z,102004.00
2022-12-28T09:55:05.459Z,102009.53
2022-12-28T09:57:39.115Z,102001.25
2022-12-28T10:00:15.946Z,101995.44
2022-12-28T10:02:49.425Z,101988.84
2022-12-28T10:05:17.756Z,101993.69
2022-12-28T10:07:45.814Z,101996.41
2022-12-28T10:10:17.742Z,101990.94
2022-12-28T10:12:48.219Z,101987.41
2022-12-28T10:15:17.637Z,101983.91
2022-12-28T10:17:46.797Z,101962.34
2022-12-28T10:20:18.259Z,101979.13
2022-12-28T10:22:50.649Z,101978.22
2022-12-28T10:25:20.565Z,101982.50
2022-12-28T10:27:49.925Z,101970.81
2022-12-28T10:30:20.327Z,101966.16
2022-12-28T10:33:01.382Z,101975.59
2022-12-28T10:35:34.508Z,101973.78
2022-12-28T10:38:04.964Z,101967.47
2022-12-28T10:40:35.210Z,101973.63
2022-12-28T10:43:10.396Z,101971.16
2022-12-28T10:45:42.102Z,101961.25
2022-12-28T10:48:15.753Z,101959.50
2022-12-28T10:50:49.035Z,101948.09
2022-12-28T10:53:25.054Z,101953.34
2022-12-28T10:56:02.652Z,101945.03
2022-12-28T10:58:33.446Z,101939.72
2022-12-28T11:01:05.448Z,101939.72
2022-12-28T11:03:36.955Z,101935.44
2022-12-28T11:06:26.419Z,101898.91
2022-12-28T11:09:05.329Z,101928.88
2022-12-28T11:11:33.777Z,101921.91
2022-12-28T11:14:08.319Z,101911.25
2022-12-28T11:16:38.629Z,101908.91
2022-12-28T11:19:06.785Z,101913.25
2022-12-28T11:21:36.153Z,101901.50
2022-12-28T11:24:05.795Z,101904.16
2022-12-28T11:26:34.905Z,101901.56
2022-12-28T11:29:04.319Z,101895.56
2022-12-28T11:31:36.119Z,101903.81
2022-12-28T11:34:07.387Z,101888.03
2022-12-28T11:36:41.539Z,101905.38
2022-12-28T11:39:39.294Z,101902.44
2022-12-28T11:44:59.695Z,101900.50
2022-12-28T11:47:33.420Z,101898.38
2022-12-28T11:50:42.377Z,101900.75
2022-12-28T11:53:44.234Z,101889.56
2022-12-28T11:56:13.577Z,101902.31
2022-12-28T11:58:47.306Z,101888.44
2022-12-28T12:01:44.346Z,101897.53
2022-12-28T12:04:30.243Z,101886.53
2022-12-28T12:07:31.030Z,101886.59
2022-12-28T12:10:31.746Z,101885.22
2022-12-28T12:13:00.039Z,101880.44
2022-12-28T12:15:35.119Z,101870.81
2022-12-28T12:18:06.667Z,101889.75
2022-12-28T12:20:48.411Z,101886.16
2022-12-28T12:23:26.108Z,101880.75
2022-12-28T12:25:56.724Z,101878.16
2022-12-28T12:28:38.193Z,101870.19
2022-12-28T12:31:12.521Z,101871.88
2022-12-28T12:33:47.206Z,101859.91
2022-12-28T12:36:30.903Z,101843.78
2022-12-28T12:39:36.637Z,101848.13
2022-12-28T12:42:15.387Z,101860.00
2022-12-28T12:44:54.975Z,101856.41
2022-12-28T12:47:57.736Z,101866.63
2022-12-28T12:50:59.702Z,101873.56
2022-12-28T12:53:48.254Z,101860.22
2022-12-28T12:56:31.324Z,101868.84
2022-12-28T12:59:16.722Z,101864.19
2022-12-28T13:01:54.435Z,101878.03
2022-12-28T13:04:25.672Z,101876.63
2022-12-28T13:06:59.775Z,101878.63
2022-12-28T13:09:30.633Z,101890.06
2022-12-28T13:11:59.938Z,101889.28
2022-12-28T13:14:27.941Z,101883.84
2022-12-28T13:16:58.985Z,101873.03
2022-12-28T13:19:28.489Z,101882.44
2022-12-28T13:21:59.279Z,101854.44
2022-12-28T13:24:29.228Z,101870.44
2022-12-28T13:26:58.815Z,101863.06
2022-12-28T13:29:28.642Z,101870.53
2022-12-28T13:31:56.751Z,101865.19
2022-12-28T13:34:26.908Z,101871.72
2022-12-28T13:36:58.327Z,101866.34
2022-12-28T13:39:29.390Z,101855.09
2022-12-28T13:42:00.129Z,101855.69
2022-12-28T13:44:41.831Z,101824.00
2022-12-28T13:47:17.766Z,101855.53
2022-12-28T13:49:52.271Z,101858.88
2022-12-28T13:52:24.314Z,101843.63
2022-12-28T13:54:57.099Z,101842.66
2022-12-28T14:00:18.937Z,101845.56
2022-12-28T14:02:48.529Z,101837.19
2022-12-28T14:05:19.799Z,101843.72
2022-12-28T14:07:49.307Z,101846.94
2022-12-28T14:10:19.872Z,101848.41
2022-12-28T14:12:49.542Z,101834.00
2022-12-28T14:15:18.917Z,101847.78
2022-12-28T14:17:49.109Z,101848.44
2022-12-28T14:20:17.110Z,101846.75
2022-12-28T14:22:45.573Z,101847.22
2022-12-28T14:25:16.033Z,101832.81
2022-12-28T14:27:57.472Z,101840.44
2022-12-28T14:30:28.186Z,101859.28
2022-12-28T14:32:57.237Z,101862.94
2022-12-28T14:35:28.142Z,101863.13
2022-12-28T14:37:58.418Z,101862.31
2022-12-28T14:40:31.597Z,101865.84
2022-12-28T14:43:06.719Z,101849.91
2022-12-28T14:46:05.149Z,101862.94
2022-12-28T14:48:37.546Z,101872.50
2022-12-28T14:51:07.812Z,101873.56
2022-12-28T14:53:35.874Z,101877.34
2022-12-28T14:56:07.946Z,101875.88
2022-12-28T14:58:51.326Z,101880.50
2022-12-28T15:01:21.097Z,101878.47
2022-12-28T15:03:51.105Z,101869.47
2022-12-28T15:06:20.278Z,101873.78
2022-12-28T15:08:50.094Z,101879.13
2022-12-28T15:11:19.407Z,101860.59
2022-12-28T15:13:48.979Z,101867.53
2022-12-28T15:16:18.192Z,101884.81
2022-12-28T15:18:46.724Z,101879.84
2022-12-28T15:21:15.676Z,101885.94
2022-12-28T15:23:45.252Z,101880.97
2022-12-28T15:26:14.473Z,101869.19
2022-12-28T15:28:42.709Z,101879.47
2022-12-28T15:31:14.061Z,101871.88
2022-12-28T15:33:42.567Z,101874.69
2022-12-28T15:36:17.399Z,101868.00
2022-12-28T15:38:46.576Z,101874.09
2022-12-28T15:41:33.161Z,101876.81
2022-12-28T15:44:01.137Z,101874.25
2022-12-28T15:46:30.525Z,101873.44
2022-12-28T15:48:59.366Z,101870.16
2022-12-28T15:51:27.278Z,101866.00
2022-12-28T15:53:55.287Z,101872.28
2022-12-28T15:56:24.770Z,101873.25
2022-12-28T15:58:56.952Z,101876.69
2022-12-28T16:01:27.010Z,101872.59
2022-12-28T16:03:58.377Z,101873.53
2022-12-28T16:06:27.408Z,101870.25
2022-12-28T16:08:56.554Z,101871.16
2022-12-28T16:11:25.429Z,101863.56
2022-12-28T16:13:55.259Z,101871.41
2022-12-28T16:16:24.470Z,101873.25
2022-12-28T16:18:57.474Z,101859.56
2022-12-28T16:21:26.656Z,101869.84
2022-12-28T16:23:54.651Z,101868.09
2022-12-28T16:26:23.023Z,101868.16
2022-12-28T16:28:51.003Z,101870.00
2022-12-28T16:31:23.933Z,101869.28
2022-12-28T16:33:57.813Z,101862.41
2022-12-28T16:36:26.465Z,101860.75
2022-12-28T16:38:54.668Z,101848.09
2022-12-28T16:41:23.478Z,101879.84
2022-12-28T16:43:51.998Z,101869.69
2022-12-28T16:46:20.231Z,101877.44
2022-12-28T16:48:48.185Z,101874.03
2022-12-28T16:51:17.525Z,101872.31
2022-12-28T16:53:45.519Z,101878.34
2022-12-28T16:56:13.525Z,101883.59
2022-12-28T16:58:44.936Z,101888.66
2022-12-28T17:01:15.762Z,101874.16
2022-12-28T17:03:44.026Z,101877.63
2022-12-28T17:06:12.160Z,101879.44
2022-12-28T17:08:41.484Z,101874.28
2022-12-28T17:11:10.326Z,101881.19
2022-12-28T17:13:38.595Z,101877.75
2022-12-28T17:16:07.502Z,101878.69
2022-12-28T17:18:35.839Z,101882.03
2022-12-28T17:21:07.102Z,101879.38
2022-12-28T17:23:35.320Z,101881.94
2022-12-28T17:26:04.744Z,101881.13
2022-12-28T17:28:32.686Z,101881.19
2022-12-28T17:31:07.158Z,101880.34
2022-12-28T17:33:39.339Z,101882.28
2022-12-28T17:36:08.757Z,101875.47
2022-12-28T17:38:36.727Z,101886.56
2022-12-28T17:41:10.142Z,101879.63
2022-12-28T17:43:38.167Z,101876.31
2022-12-28T17:46:06.865Z,101886.56
2022-12-28T17:48:34.957Z,101886.47
2022-12-28T17:51:10.849Z,101882.16
2022-12-28T17:53:39.878Z,101879.59
2022-12-28T17:56:15.674Z,101864.28
2022-12-28T17:58:45.047Z,101870.19
2022-12-28T18:01:14.161Z,101876.25
2022-12-28T18:03:43.228Z,101872.91
2022-12-28T18:06:11.703Z,101872.00
2022-12-28T18:08:39.685Z,101876.19
2022-12-28T18:11:11.330Z,101869.31
2022-12-28T18:13:39.406Z,101878.75
2022-12-28T18:16:09.264Z,101871.16
2022-12-28T18:18:37.300Z,101873.69
2022-12-28T18:21:08.024Z,101867.69
2022-12-28T18:23:36.139Z,101871.16
2022-12-28T18:26:04.550Z,101873.00
2022-12-28T18:28:35.014Z,101872.28
2022-12-28T18:31:04.465Z,101874.09
2022-12-28T18:33:33.271Z,101862.94
2022-12-28T18:36:03.924Z,101874.06
2022-12-28T18:38:32.278Z,101873.22
2022-12-28T18:41:01.163Z,101871.59
2022-12-28T18:43:29.411Z,101882.75
2022-12-28T18:46:00.983Z,101881.81
2022-12-28T18:48:30.665Z,101885.34
2022-12-28T18:51:01.117Z,101890.47
2022-12-28T18:53:31.136Z,101873.47
2022-12-28T18:55:59.952Z,101891.41
2022-12-28T18:58:28.432Z,101886.22
2022-12-28T19:01:04.010Z,101885.34
2022-12-28T19:03:32.381Z,101887.13
2022-12-28T19:06:03.188Z,101888.75
2022-12-28T19:08:32.103Z,101889.59
2022-12-28T19:11:00.223Z,101881.78
2022-12-28T19:13:28.848Z,101889.41
2022-12-28T19:15:56.855Z,101887.88
2022-12-28T19:18:26.247Z,101892.34
2022-12-28T19:20:58.169Z,101900.66
2022-12-28T19:23:27.003Z,101891.97
2022-12-28T19:25:59.583Z,101899.78
2022-12-28T19:28:27.576Z,101900.78
2022-12-28T19:31:01.026Z,101876.13
2022-12-28T19:33:33.851Z,101899.97
2022-12-28T19:36:01.831Z,101892.31
2022-12-28T19:38:29.786Z,101895.78
2022-12-28T19:40:57.949Z,101894.97
2022-12-28T19:43:25.893Z,101875.38
2022-12-28T19:45:53.811Z,101885.53
2022-12-28T19:48:21.782Z,101880.38
2022-12-28T19:50:51.145Z,101885.41
2022-12-28T19:53:19.084Z,101875.97
2022-12-28T19:55:47.063Z,101867.66
2022-12-28T19:58:15.057Z,101880.56
2022-12-28T20:00:43.076Z,101880.47
2022-12-28T20:03:11.134Z,101874.56
2022-12-28T20:05:39.187Z,101880.66
2022-12-28T20:08:08.619Z,101876.38
2022-12-28T20:10:36.574Z,101885.81
2022-12-28T20:13:04.507Z,101883.31
2022-12-28T20:15:32.426Z,101869.72
2022-12-28T20:18:00.351Z,101872.22
2022-12-28T20:20:33.012Z,101879.06
2022-12-28T20:23:10.043Z,101886.91
2022-12-28T20:25:38.008Z,101890.38
2022-12-28T20:28:06.164Z,101900.72
2022-12-28T20:30:34.106Z,101899.00
2022-12-28T20:33:02.299Z,101894.59
2022-12-28T20:35:30.230Z,101884.25
2022-12-28T20:37:58.174Z,101894.47
2022-12-28T20:40:27.498Z,101889.44
2022-12-28T20:43:12.719Z,101899.75
2022-12-28T20:45:40.655Z,101894.72
2022-12-28T20:48:08.579Z,101890.41
2022-12-28T20:50:36.531Z,101881.94
2022-12-28T20:53:04.523Z,101877.81
2022-12-28T20:55:33.924Z,101894.81
2022-12-28T20:58:01.933Z,101900.72
2022-12-28T21:00:29.904Z,101892.16
2022-12-28T21:02:57.848Z,101892.97
2022-12-28T21:05:25.803Z,101896.47
2022-12-28T21:07:53.751Z,101893.13
2022-12-28T21:10:21.680Z,101884.63
2022-12-28T21:12:50.999Z,101881.13
2022-12-28T21:15:18.957Z,101875.13
2022-12-28T21:17:46.926Z,101873.34
2022-12-28T21:20:14.949Z,101884.38
2022-12-28T21:22:42.873Z,101886.09
2022-12-28T21:25:12.013Z,101881.03
2022-12-28T21:27:39.967Z,101881.06
2022-12-28T21:30:10.813Z,101880.25
2022-12-28T21:32:38.755Z,101873.38
2022-12-28T21:35:07.559Z,101878.50
2022-12-28T21:37:35.498Z,101880.25
2022-12-28T21:40:05.372Z,101869.25
2022-12-28T21:42:33.735Z,101870.00
2022-12-28T21:45:01.961Z,101864.13
2022-12-28T21:47:32.142Z,101871.00
2022-12-28T21:50:00.162Z,101867.66
2022-12-28T21:52:31.178Z,101871.97
2022-12-28T21:55:19.114Z,101875.34
2022-12-28T21:57:50.649Z,101874.41
2022-12-28T22:00:33.039Z,101870.97
2022-12-28T22:03:20.225Z,101868.38
2022-12-28T22:06:03.803Z,101869.28
2022-12-28T22:08:49.775Z,101865.91
2022-12-28T22:11:35.241Z,101862.50
2022-12-28T22:14:03.280Z,101860.81
2022-12-28T22:16:33.018Z,101849.59
2022-12-28T22:19:03.780Z,101850.38
2022-12-28T22:21:32.345Z,101856.31
2022-12-28T22:24:00.275Z,101860.56
2022-12-28T22:26:28.248Z,101852.00
2022-12-28T22:28:56.205Z,101851.19
2022-12-28T22:31:24.197Z,101844.41
2022-12-28T22:33:53.386Z,101837.78
2022-12-28T22:36:22.825Z,101842.81
2022-12-28T22:38:50.774Z,101843.66
2022-12-28T22:41:18.710Z,101835.06
2022-12-28T22:43:50.521Z,101811.16
2022-12-28T22:46:19.587Z,101817.06
2022-12-28T22:48:48.921Z,101829.00
2022-12-28T22:51:17.774Z,101821.34
2022-12-28T22:53:50.040Z,101819.63
2022-12-28T22:56:20.844Z,101825.72
2022-12-28T22:58:49.486Z,101821.41
2022-12-28T23:01:19.725Z,101809.47
2022-12-28T23:03:49.188Z,101800.03
2022-12-28T23:06:19.868Z,101814.50
2022-12-28T23:08:49.613Z,101806.84
2022-12-28T23:11:36.277Z,101809.44
2022-12-28T23:14:19.474Z,101803.63
2022-12-28T23:16:47.865Z,101789.19
2022-12-28T23:19:33.820Z,101796.78
2022-12-28T23:22:20.784Z,101792.50
2022-12-28T23:25:07.584Z,101797.63
2022-12-28T23:27:38.211Z,101783.09
2022-12-28T23:30:08.706Z,101789.06
2022-12-28T23:32:36.648Z,101792.50
2022-12-28T23:35:04.840Z,101786.63
2022-12-28T23:37:32.883Z,101796.13
2022-12-28T23:40:02.207Z,101800.41
2022-12-28T23:42:30.187Z,101796.19
2022-12-28T23:44:58.095Z,101797.91
2022-12-28T23:47:26.028Z,101812.34
2022-12-28T23:49:54.002Z,101811.50
2022-12-28T23:52:25.828Z,101811.56
2022-12-28T23:54:54.228Z,101814.09
2022-12-28T23:57:24.163Z,101811.53
2022-12-28T23:59:52.137Z,101814.91
